sensor_id;sensor_type;location;lat;lon;timestamp;pressure;altitude;pressure_sealevel;temperature
43292;BMP280;28754;47.700;7.924;2023-04-01T00:02:43;90333.34;;;7.19
43292;BMP280;28754;47.700;7.924;2023-04-01T00:05:29;90354.19;;;7.26
43292;BMP280;28754;47.700;7.924;2023-04-01T00:08:16;90331.81;;;7.23
43292;BMP280;28754;47.700;7.924;2023-04-01T00:11:03;90349.59;;;7.28
43292;BMP280;28754;47.700;7.924;2023-04-01T00:13:50;90341.41;;;7.31
43292;BMP280;28754;47.700;7.924;2023-04-01T00:16:36;90338.63;;;7.32
43292;BMP280;28754;47.700;7.924;2023-04-01T00:19:25;90343.97;;;7.36
43292;BMP280;28754;47.700;7.924;2023-04-01T00:22:11;90349.81;;;7.36
43292;BMP280;28754;47.700;7.924;2023-04-01T00:24:58;90351.59;;;7.36
43292;BMP280;28754;47.700;7.924;2023-04-01T00:27:44;90347.00;;;7.38
43292;BMP280;28754;47.700;7.924;2023-04-01T00:30:31;90342.63;;;7.43
43292;BMP280;28754;47.700;7.924;2023-04-01T00:33:17;90342.38;;;7.45
43292;BMP280;28754;47.700;7.924;2023-04-01T00:38:57;90347.41;;;7.54
43292;BMP280;28754;47.700;7.924;2023-04-01T00:41:45;90350.44;;;7.61
43292;BMP280;28754;47.700;7.924;2023-04-01T00:44:33;90337.72;;;7.61
43292;BMP280;28754;47.700;7.924;2023-04-01T00:47:27;90337.72;;;7.61
43292;BMP280;28754;47.700;7.924;2023-04-01T00:50:24;90346.91;;;7.57
43292;BMP280;28754;47.700;7.924;2023-04-01T00:53:18;90347.91;;;7.56
43292;BMP280;28754;47.700;7.924;2023-04-01T00:56:27;90353.53;;;7.53
43292;BMP280;28754;47.700;7.924;2023-04-01T00:59:35;90356.59;;;7.55
43292;BMP280;28754;47.700;7.924;2023-04-01T01:02:25;90346.44;;;7.51
43292;BMP280;28754;47.700;7.924;2023-04-01T01:05:14;90356.59;;;7.55
43292;BMP280;28754;47.700;7.924;2023-04-01T01:16:30;90330.13;;;7.52
43292;BMP280;28754;47.700;7.924;2023-04-01T01:22:52;90338.25;;;7.53
43292;BMP280;28754;47.700;7.924;2023-04-01T01:25:46;90337.00;;;7.51
43292;BMP280;28754;47.700;7.924;2023-04-01T01:28:52;90325.56;;;7.44
43292;BMP280;28754;47.700;7.924;2023-04-01T01:38:10;90332.19;;;7.45
43292;BMP280;28754;47.700;7.924;2023-04-01T01:41:01;90326.81;;;7.46
43292;BMP280;28754;47.700;7.924;2023-04-01T01:43:50;90338.50;;;7.52
43292;BMP280;28754;47.700;7.924;2023-04-01T01:46:42;90325.81;;;7.47
43292;BMP280;28754;47.700;7.924;2023-04-01T01:50:35;90323.47;;;7.55
43292;BMP280;28754;47.700;7.924;2023-04-01T01:53:44;90329.13;;;7.48
43292;BMP280;28754;47.700;7.924;2023-04-01T02:09:22;90324.56;;;7.45
43292;BMP280;28754;47.700;7.924;2023-04-01T02:20:50;90320.47;;;7.44
43292;BMP280;28754;47.700;7.924;2023-04-01T02:23:38;90337.25;;;7.50
43292;BMP280;28754;47.700;7.924;2023-04-01T02:26:26;90331.16;;;7.51
43292;BMP280;28754;47.700;7.924;2023-04-01T02:29:13;90326.81;;;7.46
43292;BMP280;28754;47.700;7.924;2023-04-01T02:32:00;90319.47;;;7.40
43292;BMP280;28754;47.700;7.924;2023-04-01T02:34:48;90329.66;;;7.40
43292;BMP280;28754;47.700;7.924;2023-04-01T02:37:38;90349.78;;;7.41
43292;BMP280;28754;47.700;7.924;2023-04-01T02:40:28;90326.94;;;7.31
43292;BMP280;28754;47.700;7.924;2023-04-01T02:43:16;90334.50;;;7.41
43292;BMP280;28754;47.700;7.924;2023-04-01T02:46:03;90343.19;;;7.40
43292;BMP280;28754;47.700;7.924;2023-04-01T02:48:50;90334.53;;;7.36
43292;BMP280;28754;47.700;7.924;2023-04-01T02:51:37;90352.03;;;7.48
43292;BMP280;28754;47.700;7.924;2023-04-01T02:54:35;90347.97;;;7.47
43292;BMP280;28754;47.700;7.924;2023-04-01T02:57:25;90326.84;;;7.41
43292;BMP280;28754;47.700;7.924;2023-04-01T03:00:20;90329.66;;;7.45
43292;BMP280;28754;47.700;7.924;2023-04-01T03:03:10;90323.53;;;7.46
43292;BMP280;28754;47.700;7.924;2023-04-01T03:06:10;90327.06;;;7.50
43292;BMP280;28754;47.700;7.924;2023-04-01T03:09:04;90316.84;;;7.54
43292;BMP280;28754;47.700;7.924;2023-04-01T03:11:57;90333.16;;;7.53
43292;BMP280;28754;47.700;7.924;2023-04-01T03:14:57;90309.25;;;7.50
43292;BMP280;28754;47.700;7.924;2023-04-01T03:18:35;90303.16;;;7.46
43292;BMP280;28754;47.700;7.924;2023-04-01T03:21:46;90326.91;;;7.36
43292;BMP280;28754;47.700;7.924;2023-04-01T03:24:33;90328.19;;;7.34
43292;BMP280;28754;47.700;7.924;2023-04-01T03:27:20;90327.22;;;7.25
43292;BMP280;28754;47.700;7.924;2023-04-01T03:30:07;90327.47;;;7.23
43292;BMP280;28754;47.700;7.924;2023-04-01T03:33:00;90334.06;;;7.24
43292;BMP280;28754;47.700;7.924;2023-04-01T03:35:49;90330.28;;;7.22
43292;BMP280;28754;47.700;7.924;2023-04-01T03:38:40;90340.97;;;7.14
43292;BMP280;28754;47.700;7.924;2023-04-01T03:41:27;90330.34;;;7.07
43292;BMP280;28754;47.700;7.924;2023-04-01T03:44:14;90319.91;;;7.09
43292;BMP280;28754;47.700;7.924;2023-04-01T03:47:01;90320.19;;;7.02
43292;BMP280;28754;47.700;7.924;2023-04-01T03:49:49;90311.53;;;6.98
43292;BMP280;28754;47.700;7.924;2023-04-01T03:52:36;90302.94;;;6.89
43292;BMP280;28754;47.700;7.924;2023-04-01T03:55:23;90331.66;;;6.95
43292;BMP280;28754;47.700;7.924;2023-04-01T03:58:10;90315.41;;;6.91
43292;BMP280;28754;47.700;7.924;2023-04-01T04:00:57;90306.19;;;6.95
43292;BMP280;28754;47.700;7.924;2023-04-01T04:03:54;90325.53;;;7.01
43292;BMP280;28754;47.700;7.924;2023-04-01T04:06:42;90321.94;;;7.07
43292;BMP280;28754;47.700;7.924;2023-04-01T04:09:32;90324.78;;;7.00
43292;BMP280;28754;47.700;7.924;2023-04-01T04:12:19;90325.56;;;6.96
43292;BMP280;28754;47.700;7.924;2023-04-01T04:15:07;90319.22;;;6.93
43292;BMP280;28754;47.700;7.924;2023-04-01T04:17:54;90311.56;;;6.88
43292;BMP280;28754;47.700;7.924;2023-04-01T04:20:45;90318.94;;;6.95
43292;BMP280;28754;47.700;7.924;2023-04-01T04:23:37;90308.75;;;6.95
43292;BMP280;28754;47.700;7.924;2023-04-01T04:26:23;90301.91;;;6.90
43292;BMP280;28754;47.700;7.924;2023-04-01T04:29:16;90307.50;;;6.92
43292;BMP280;28754;47.700;7.924;2023-04-01T04:32:03;90314.13;;;6.93
43292;BMP280;28754;47.700;7.924;2023-04-01T04:35:03;90305.44;;;6.94
43292;BMP280;28754;47.700;7.924;2023-04-01T04:37:54;90315.13;;;6.92
43292;BMP280;28754;47.700;7.924;2023-04-01T04:40:47;90306.47;;;6.88
43292;BMP280;28754;47.700;7.924;2023-04-01T04:43:42;90301.66;;;6.92
43292;BMP280;28754;47.700;7.924;2023-04-01T04:46:34;90306.75;;;6.87
43292;BMP280;28754;47.700;7.924;2023-04-01T04:49:32;90317.19;;;6.85
43292;BMP280;28754;47.700;7.924;2023-04-01T04:52:24;90317.66;;;6.92
43292;BMP280;28754;47.700;7.924;2023-04-01T04:55:11;90312.84;;;6.91
43292;BMP280;28754;47.700;7.924;2023-04-01T04:57:58;90304.94;;;6.92
43292;BMP280;28754;47.700;7.924;2023-04-01T05:00:45;90303.22;;;6.83
43292;BMP280;28754;47.700;7.924;2023-04-01T05:03:40;90306.75;;;6.82
43292;BMP280;28754;47.700;7.924;2023-04-01T05:06:27;90321.28;;;6.82
43292;BMP280;28754;47.700;7.924;2023-04-01T05:09:16;90321.53;;;6.85
43292;BMP280;28754;47.700;7.924;2023-04-01T05:12:03;90320.78;;;6.84
43292;BMP280;28754;47.700;7.924;2023-04-01T05:15:11;90321.28;;;6.82
43292;BMP280;28754;47.700;7.924;2023-04-01T05:18:00;90315.94;;;6.83
43292;BMP280;28754;47.700;7.924;2023-04-01T05:20:50;90331.44;;;6.86
43292;BMP280;28754;47.700;7.924;2023-04-01T05:23:57;90317.69;;;6.87
43292;BMP280;28754;47.700;7.924;2023-04-01T05:27:50;90314.88;;;6.94
43292;BMP280;28754;47.700;7.924;2023-04-01T05:31:07;90312.06;;;6.95
43292;BMP280;28754;47.700;7.924;2023-04-01T05:34:23;90326.84;;;6.93
43292;BMP280;28754;47.700;7.924;2023-04-01T05:41:27;90317.91;;;6.96
43292;BMP280;28754;47.700;7.924;2023-04-01T05:44:26;90310.03;;;6.97
43292;BMP280;28754;47.700;7.924;2023-04-01T05:48:21;90319.97;;;6.94
43292;BMP280;28754;47.700;7.924;2023-04-01T05:51:19;90333.44;;;6.94
43292;BMP280;28754;47.700;7.924;2023-04-01T05:54:15;90322.00;;;6.92
43292;BMP280;28754;47.700;7.924;2023-04-01T05:57:05;90333.44;;;6.94
43292;BMP280;28754;47.700;7.924;2023-04-01T06:00:11;90329.88;;;6.95
43292;BMP280;28754;47.700;7.924;2023-04-01T06:03:13;90329.88;;;6.95
43292;BMP280;28754;47.700;7.924;2023-04-01T06:06:31;90332.94;;;6.97
43292;BMP280;28754;47.700;7.924;2023-04-01T06:09:37;90335.47;;;6.97
43292;BMP280;28754;47.700;7.924;2023-04-01T06:13:02;90343.84;;;7.03
43292;BMP280;28754;47.700;7.924;2023-04-01T06:20:04;90333.63;;;7.13
43292;BMP280;28754;47.700;7.924;2023-04-01T06:26:11;90324.16;;;7.18
43292;BMP280;28754;47.700;7.924;2023-04-01T06:32:39;90315.03;;;7.17
43292;BMP280;28754;47.700;7.924;2023-04-01T06:42:15;90327.75;;;7.17
43292;BMP280;28754;47.700;7.924;2023-04-01T06:52:50;90313.03;;;7.09
43292;BMP280;28754;47.700;7.924;2023-04-01T06:56:49;90318.41;;;7.03
43292;BMP280;28754;47.700;7.924;2023-04-01T07:04:52;90321.22;;;6.96
43292;BMP280;28754;47.700;7.924;2023-04-01T07:08:01;90329.34;;;6.98
43292;BMP280;28754;47.700;7.924;2023-04-01T07:11:52;90321.19;;;7.01
43292;BMP280;28754;47.700;7.924;2023-04-01T07:15:30;90313.34;;;6.98
43292;BMP280;28754;47.700;7.924;2023-04-01T07:18:38;90315.63;;;6.99
43292;BMP280;28754;47.700;7.924;2023-04-01T07:21:43;90326.81;;;6.98
43292;BMP280;28754;47.700;7.924;2023-04-01T07:28:52;90342.84;;;6.99
43292;BMP280;28754;47.700;7.924;2023-04-01T07:41:26;90344.31;;;7.10
43292;BMP280;28754;47.700;7.924;2023-04-01T07:44:28;90345.09;;;7.10
43292;BMP280;28754;47.700;7.924;2023-04-01T07:47:53;90333.84;;;7.16
43292;BMP280;28754;47.700;7.924;2023-04-01T07:50:53;90334.38;;;7.13
43292;BMP280;28754;47.700;7.924;2023-04-01T08:00:15;90349.63;;;7.23
43292;BMP280;28754;47.700;7.924;2023-04-01T08:03:18;90365.41;;;7.20
43292;BMP280;28754;47.700;7.924;2023-04-01T08:06:24;90363.63;;;7.20
43292;BMP280;28754;47.700;7.924;2023-04-01T08:09:28;90377.63;;;7.23
43292;BMP280;28754;47.700;7.924;2023-04-01T08:16:28;90373.53;;;7.22
43292;BMP280;28754;47.700;7.924;2023-04-01T08:22:51;90374.59;;;7.11
43292;BMP280;28754;47.700;7.924;2023-04-01T08:25:56;90362.91;;;7.10
43292;BMP280;28754;47.700;7.924;2023-04-01T08:28:52;90365.97;;;7.07
43292;BMP280;28754;47.700;7.924;2023-04-01T08:35:19;90377.19;;;6.96
43292;BMP280;28754;47.700;7.924;2023-04-01T08:38:17;90374.16;;;6.99
43292;BMP280;28754;47.700;7.924;2023-04-01T08:41:44;90361.91;;;7.01
43292;BMP280;28754;47.700;7.924;2023-04-01T08:48:31;90358.09;;;7.04
43292;BMP280;28754;47.700;7.924;2023-04-01T08:58:24;90363.41;;;7.07
43292;BMP280;28754;47.700;7.924;2023-04-01T09:05:36;90375.41;;;7.02
43292;BMP280;28754;47.700;7.924;2023-04-01T09:15:27;90375.38;;;7.07
43292;BMP280;28754;47.700;7.924;2023-04-01T09:18:29;90377.69;;;7.08
43292;BMP280;28754;47.700;7.924;2023-04-01T09:21:25;90378.19;;;7.10
43292;BMP280;28754;47.700;7.924;2023-04-01T09:24:41;90373.59;;;7.12
43292;BMP280;28754;47.700;7.924;2023-04-01T09:31:08;90380.97;;;7.14
43292;BMP280;28754;47.700;7.924;2023-04-01T09:37:35;90390.84;;;7.20
43292;BMP280;28754;47.700;7.924;2023-04-01T09:41:04;90389.84;;;7.21
43292;BMP280;28754;47.700;7.924;2023-04-01T09:47:42;90391.88;;;7.24
43292;BMP280;28754;47.700;7.924;2023-04-01T09:51:10;90389.81;;;7.26
43292;BMP280;28754;47.700;7.924;2023-04-01T09:54:08;90387.03;;;7.27
43292;BMP280;28754;47.700;7.924;2023-04-01T09:57:30;90382.69;;;7.28
43292;BMP280;28754;47.700;7.924;2023-04-01T12:29:09;90424.44;;;7.85
43292;BMP280;28754;47.700;7.924;2023-04-01T13:27:38;90426.56;;;8.49
43292;BMP280;28754;47.700;7.924;2023-04-01T13:43:23;90419.13;;;8.85
43292;BMP280;28754;47.700;7.924;2023-04-01T13:53:23;90426.19;;;8.93
43292;BMP280;28754;47.700;7.924;2023-04-01T14:26:22;90429.88;;;8.82
43292;BMP280;28754;47.700;7.924;2023-04-01T14:36:59;90420.84;;;8.61
43292;BMP280;28754;47.700;7.924;2023-04-01T14:47:03;90428.38;;;8.48
43292;BMP280;28754;47.700;7.924;2023-04-01T14:49:53;90427.91;;;8.41
43292;BMP280;28754;47.700;7.924;2023-04-01T15:16:52;90429.25;;;8.95
43292;BMP280;28754;47.700;7.924;2023-04-01T15:26:15;90435.41;;;9.17
43292;BMP280;28754;47.700;7.924;2023-04-01T15:29:27;90426.72;;;9.18
43292;BMP280;28754;47.700;7.924;2023-04-01T15:42:55;90451.53;;;9.13
43292;BMP280;28754;47.700;7.924;2023-04-01T15:49:33;90438.34;;;9.29
43292;BMP280;28754;47.700;7.924;2023-04-01T15:52:50;90445.75;;;9.30
43292;BMP280;28754;47.700;7.924;2023-04-01T16:02:47;90440.97;;;9.24
43292;BMP280;28754;47.700;7.924;2023-04-01T16:06:14;90433.94;;;9.11
43292;BMP280;28754;47.700;7.924;2023-04-01T16:13:14;90442.44;;;9.07
43292;BMP280;28754;47.700;7.924;2023-04-01T16:32:14;90429.53;;;9.17
43292;BMP280;28754;47.700;7.924;2023-04-01T17:20:31;90457.72;;;8.79
43292;BMP280;28754;47.700;7.924;2023-04-01T17:28:37;90459.63;;;8.68
43292;BMP280;28754;47.700;7.924;2023-04-01T17:32:13;90462.97;;;8.59
43292;BMP280;28754;47.700;7.924;2023-04-01T17:55:31;90490.53;;;8.62
43292;BMP280;28754;47.700;7.924;2023-04-01T17:58:55;90491.53;;;8.61
43292;BMP280;28754;47.700;7.924;2023-04-01T18:16:41;90514.00;;;8.64
43292;BMP280;28754;47.700;7.924;2023-04-01T18:20:11;90516.84;;;8.57
43292;BMP280;28754;47.700;7.924;2023-04-01T18:31:51;90539.91;;;8.38
43292;BMP280;28754;47.700;7.924;2023-04-01T18:43:43;90550.38;;;8.36
43292;BMP280;28754;47.700;7.924;2023-04-01T18:51:20;90551.47;;;8.21
43292;BMP280;28754;47.700;7.924;2023-04-01T18:54:30;90551.75;;;8.14
43292;BMP280;28754;47.700;7.924;2023-04-01T19:04:43;90582.06;;;8.25
43292;BMP280;28754;47.700;7.924;2023-04-01T19:07:49;90558.63;;;8.19
43292;BMP280;28754;47.700;7.924;2023-04-01T19:21:48;90573.72;;;7.95
43292;BMP280;28754;47.700;7.924;2023-04-01T19:25:07;90577.28;;;7.99
43292;BMP280;28754;47.700;7.924;2023-04-01T19:28:26;90575.50;;;8.00
43292;BMP280;28754;47.700;7.924;2023-04-01T19:55:47;90579.53;;;8.06
43292;BMP280;28754;47.700;7.924;2023-04-01T19:59:04;90588.75;;;7.97
43292;BMP280;28754;47.700;7.924;2023-04-01T20:02:33;90591.34;;;7.87
43292;BMP280;28754;47.700;7.924;2023-04-01T20:05:47;90600.28;;;7.80
43292;BMP280;28754;47.700;7.924;2023-04-01T20:10:04;90611.00;;;7.77
43292;BMP280;28754;47.700;7.924;2023-04-01T20:16:06;90596.25;;;7.64
43292;BMP280;28754;47.700;7.924;2023-04-01T20:18:59;90595.47;;;7.63
43292;BMP280;28754;47.700;7.924;2023-04-01T20:21:47;90606.69;;;7.62
43292;BMP280;28754;47.700;7.924;2023-04-01T20:24:46;90605.66;;;7.63
43292;BMP280;28754;47.700;7.924;2023-04-01T20:31:23;90619.44;;;7.72
43292;BMP280;28754;47.700;7.924;2023-04-01T22:08:15;90650.50;;;7.40
43292;BMP280;28754;47.700;7.924;2023-04-01T22:15:24;90660.97;;;7.43
43292;BMP280;28754;47.700;7.924;2023-04-01T22:18:34;90654.63;;;7.36
43292;BMP280;28754;47.700;7.924;2023-04-01T22:21:38;90655.88;;;7.28
43292;BMP280;28754;47.700;7.924;2023-04-01T22:25:17;90664.25;;;7.29
43292;BMP280;28754;47.700;7.924;2023-04-01T22:28:12;90667.09;;;7.27
43292;BMP280;28754;47.700;7.924;2023-04-01T22:31:03;90662.47;;;7.24
43292;BMP280;28754;47.700;7.924;2023-04-01T22:34:10;90664.78;;;7.21
43292;BMP280;28754;47.700;7.924;2023-04-01T22:37:34;90665.78;;;7.20
43292;BMP280;28754;47.700;7.924;2023-04-01T22:40:35;90665.81;;;7.25
43292;BMP280;28754;47.700;7.924;2023-04-01T22:43:39;90660.44;;;7.26
43292;BMP280;28754;47.700;7.924;2023-04-01T22:49:47;90668.13;;;7.31
43292;BMP280;28754;47.700;7.924;2023-04-01T22:52:43;90669.88;;;7.31
43292;BMP280;28754;47.700;7.924;2023-04-01T22:55:35;90669.34;;;7.29
43292;BMP280;28754;47.700;7.924;2023-04-01T22:58:32;90672.41;;;7.31
43292;BMP280;28754;47.700;7.924;2023-04-01T23:01:27;90669.88;;;7.31
43292;BMP280;28754;47.700;7.924;2023-04-01T23:04:22;90676.00;;;7.30
43292;BMP280;28754;47.700;7.924;2023-04-01T23:10:58;90671.91;;;7.29
43292;BMP280;28754;47.700;7.924;2023-04-01T23:17:42;90675.97;;;7.20
43292;BMP280;28754;47.700;7.924;2023-04-01T23:24:15;90692.28;;;7.24
43292;BMP280;28754;47.700;7.924;2023-04-01T23:27:50;90686.66;;;7.27
43292;BMP280;28754;47.700;7.924;2023-04-01T23:33:29;90696.63;;;7.23
43292;BMP280;28754;47.700;7.924;2023-04-01T23:36:16;90691.75;;;7.22
43292;BMP280;28754;47.700;7.924;2023-04-01T23:42:26;90702.72;;;7.18
43292;BMP280;28754;47.700;7.924;2023-04-01T23:45:17;90709.31;;;7.14
43292;BMP280;28754;47.700;7.924;2023-04-01T23:48:15;90709.84;;;7.16
43292;BMP280;28754;47.700;7.924;2023-04-01T23:51:03;90703.75;;;7.17
43292;BMP280;28754;47.700;7.924;2023-04-01T23:54:03;90715.69;;;7.16
43292;BMP280;28754;47.700;7.924;2023-04-01T23:56:56;90710.34;;;7.13
43292;BMP280;28754;47.700;7.924;2023-04-01T23:59:43;90710.59;;;7.11
